Time;durP1;ratioP1;P1;durP2;ratioP2;P2;SDS_P1;SDS_P2;PMS_P1;PMS_P2;Temp;Humidity;BMP_temperature;BMP_pressure;BME280_temperature;BME280_humidity;BME280_pressure;Samples;Min_cycle;Max_cycle;Signal;HPM_P1;HPM_P2
2022/11/01 00:01:03;;;;;;;0.15;0.15;;;13.50;99.90;;;;;;5099712;28;20128;-82
2022/11/01 00:03:29;;;;;;;2.83;0.95;;;13.60;99.90;;;;;;5099405;28;20040;-82
2022/11/01 00:05:55;;;;;;;0.88;0.25;;;13.60;99.90;;;;;;5099054;28;20498;-82
2022/11/01 00:08:21;;;;;;;0.17;0.17;;;13.70;99.90;;;;;;5099637;28;20368;-82
2022/11/01 00:10:47;;;;;;;3.20;0.73;;;13.70;99.90;;;;;;5099046;28;20051;-82
2022/11/01 00:13:12;;;;;;;0.32;0.20;;;13.70;99.90;;;;;;5082300;28;20052;-82
2022/11/01 00:15:38;;;;;;;0.43;0.25;;;13.70;99.90;;;;;;5099286;28;20040;-82
2022/11/01 00:18:03;;;;;;;0.50;0.50;;;13.80;99.90;;;;;;5099490;28;20101;-82
2022/11/01 00:20:29;;;;;;;0.40;0.40;;;13.80;99.90;;;;;;5082147;28;20040;-82
2022/11/01 00:22:55;;;;;;;0.13;0.13;;;13.80;99.90;;;;;;5082617;28;20483;-82
2022/11/01 00:25:20;;;;;;;0.95;0.38;;;13.90;99.90;;;;;;5099280;28;20047;-82
2022/11/01 00:27:46;;;;;;;0.00;0.00;;;13.90;99.90;;;;;;5082520;28;20047;-82
2022/11/01 00:30:12;;;;;;;0.57;0.57;;;14.00;99.90;;;;;;5082261;28;20048;-82
2022/11/01 00:32:37;;;;;;;0.70;0.65;;;14.00;99.90;;;;;;5099168;28;20044;-82
2022/11/01 00:35:03;;;;;;;1.55;0.55;;;14.00;99.90;;;;;;5082229;28;20144;-82
2022/11/01 00:37:29;;;;;;;0.65;0.55;;;14.00;99.90;;;;;;5099148;28;20185;-82
2022/11/01 00:39:54;;;;;;;0.63;0.60;;;14.00;99.90;;;;;;5099338;28;20044;-83
2022/11/01 00:42:20;;;;;;;1.00;0.73;;;14.10;99.90;;;;;;5082351;28;20168;-82
2022/11/01 00:44:45;;;;;;;0.10;0.10;;;14.00;99.90;;;;;;5098501;28;20188;-82
2022/11/01 00:47:11;;;;;;;0.47;0.47;;;14.10;99.90;;;;;;5099005;28;20087;-82
2022/11/01 00:49:37;;;;;;;0.10;0.10;;;14.10;99.90;;;;;;5082097;28;20510;-83
2022/11/01 00:52:02;;;;;;;0.05;0.05;;;14.10;99.90;;;;;;5098861;28;20138;-82
2022/11/01 00:54:28;;;;;;;4.80;0.25;;;14.10;99.90;;;;;;5082023;28;20051;-82
2022/11/01 00:56:54;;;;;;;0.28;0.28;;;14.10;99.90;;;;;;5078286;28;20059;-82
2022/11/01 00:59:19;;;;;;;0.22;0.22;;;14.10;99.90;;;;;;5078953;28;20044;-83
2022/11/01 01:01:45;;;;;;;1.45;0.45;;;14.20;99.90;;;;;;5078995;28;20077;-82
2022/11/01 01:04:10;;;;;;;1.35;0.63;;;14.20;99.90;;;;;;5078910;28;20055;-82
2022/11/01 01:06:36;;;;;;;0.10;0.10;;;14.20;99.90;;;;;;5078839;28;20072;-82
2022/11/01 01:09:02;;;;;;;0.08;0.08;;;14.20;99.90;;;;;;5078936;28;20048;-83
2022/11/01 01:11:28;;;;;;;0.25;0.25;;;14.30;99.90;;;;;;5095277;28;20388;-82
2022/11/01 01:13:53;;;;;;;3.10;0.50;;;14.30;99.90;;;;;;5095660;28;20087;-82
2022/11/01 01:16:19;;;;;;;0.10;0.10;;;14.30;99.90;;;;;;5095303;28;20545;-83
2022/11/01 01:18:45;;;;;;;0.30;0.30;;;14.40;99.90;;;;;;5095046;28;20051;-82
2022/11/01 01:21:12;;;;;;;0.00;0.00;;;14.40;99.90;;;;;;5095674;28;20093;-83
2022/11/01 01:23:38;;;;;;;0.03;0.03;;;14.40;99.90;;;;;;5095986;28;20044;-82
2022/11/01 01:26:09;;;;;;;0.20;0.20;;;14.30;99.90;;;;;;5078604;28;20067;-83
2022/11/01 01:28:35;;;;;;;1.40;0.60;;;14.30;99.90;;;;;;5095697;28;20074;-83
2022/11/01 01:31:08;;;;;;;0.70;0.70;;;14.40;99.90;;;;;;5078154;28;20043;-82
2022/11/01 01:33:33;;;;;;;0.10;0.10;;;14.40;99.90;;;;;;5078357;28;20055;-82
2022/11/01 01:36:01;;;;;;;0.03;0.00;;;14.40;99.90;;;;;;5094970;28;20504;-82
2022/11/01 01:38:26;;;;;;;0.82;0.22;;;14.50;99.90;;;;;;5078381;28;20052;-82
2022/11/01 01:40:52;;;;;;;0.00;0.00;;;14.40;99.90;;;;;;5095034;28;20052;-82
2022/11/01 01:43:17;;;;;;;1.00;0.35;;;14.50;99.90;;;;;;5094658;28;20036;-82
2022/11/01 01:45:44;;;;;;;0.55;0.55;;;14.50;99.90;;;;;;5094397;28;20048;-82
2022/11/01 01:48:17;;;;;;;0.10;0.10;;;14.50;99.90;;;;;;5094915;28;20063;-82
2022/11/01 01:51:00;;;;;;;1.23;0.75;;;14.50;99.90;;;;;;5095191;28;20044;-82
2022/11/01 01:53:34;;;;;;;0.20;0.17;;;14.50;99.90;;;;;;5078115;28;20056;-82
2022/11/01 01:56:03;;;;;;;4.07;1.02;;;14.60;99.90;;;;;;5094412;28;20051;-82
2022/11/01 01:58:49;;;;;;;0.10;0.10;;;14.60;99.90;;;;;;5094506;28;20051;-83
2022/11/01 02:01:15;;;;;;;1.23;0.47;;;14.50;99.90;;;;;;5078211;28;20062;-83
2022/11/01 02:03:42;;;;;;;0.00;0.00;;;14.50;99.90;;;;;;5094600;28;20139;-82
2022/11/01 02:06:16;;;;;;;0.10;0.10;;;14.50;99.90;;;;;;5077692;28;20070;-82
2022/11/01 02:08:45;;;;;;;0.03;0.03;;;14.50;99.90;;;;;;5077553;28;20044;-82
2022/11/01 02:11:11;;;;;;;0.28;0.28;;;14.50;99.90;;;;;;5077711;28;20055;-82
2022/11/01 02:13:38;;;;;;;0.00;0.00;;;14.50;99.90;;;;;;5078176;28;20059;-83
2022/11/01 02:16:18;;;;;;;0.98;0.38;;;14.50;99.90;;;;;;5077238;28;20457;-84
2022/11/01 02:19:08;;;;;;;0.00;0.00;;;14.50;99.90;;;;;;5093904;28;20484;-83
2022/11/01 02:21:45;;;;;;;0.52;0.35;;;14.60;99.90;;;;;;5094957;28;20044;-83
2022/11/01 02:24:52;;;;;;;0.17;0.17;;;14.60;99.90;;;;;;5094106;28;20511;-83
2022/11/01 02:27:56;;;;;;;1.20;0.40;;;14.60;99.90;;;;;;5094121;28;20055;-83
2022/11/01 02:30:23;;;;;;;0.30;0.20;;;14.60;99.90;;;;;;5076436;28;20077;-83
2022/11/01 02:33:15;;;;;;;0.20;0.20;;;14.60;99.90;;;;;;5094081;28;20123;-84
2022/11/01 02:35:46;;;;;;;1.20;0.52;;;14.60;99.90;;;;;;5071213;28;20056;-83
2022/11/01 02:38:48;;;;;;;0.57;0.32;;;14.60;99.90;;;;;;5076927;28;20093;-83
2022/11/01 02:41:24;;;;;;;0.00;0.00;;;14.70;99.90;;;;;;5091863;28;20060;-83
2022/11/01 02:44:03;;;;;;;8.88;0.80;;;14.80;99.90;;;;;;5076945;28;20040;-83
2022/11/01 02:49:24;;;;;;;0.10;0.10;;;14.80;99.90;;;;;;5093256;28;20472;-84
2022/11/01 02:51:51;;;;;;;0.00;0.00;;;14.80;99.90;;;;;;5093781;28;20075;-83
2022/11/01 02:54:30;;;;;;;0.38;0.20;;;14.90;99.90;;;;;;5093288;28;20063;-83
2022/11/01 02:57:02;;;;;;;0.00;0.00;;;14.90;99.90;;;;;;5076802;28;20070;-84
2022/11/01 02:59:28;;;;;;;0.60;0.60;;;14.90;99.90;;;;;;5093554;28;20051;-84
2022/11/01 03:02:21;;;;;;;3.25;0.98;;;14.90;99.90;;;;;;5093525;28;20083;-83
2022/11/01 03:04:47;;;;;;;0.80;0.65;;;15.00;99.90;;;;;;5055378;28;20057;-83
2022/11/01 03:07:15;;;;;;;0.05;0.00;;;15.10;99.90;;;;;;5038320;28;20099;-83
2022/11/01 03:09:41;;;;;;;0.10;0.10;;;15.10;99.90;;;;;;5055267;28;20122;-83
2022/11/01 03:12:24;;;;;;;0.00;0.00;;;15.20;99.90;;;;;;5038352;28;20060;-83
2022/11/01 03:15:19;;;;;;;0.00;0.00;;;15.30;99.90;;;;;;5055455;28;20040;-83
2022/11/01 03:17:50;;;;;;;;;;;15.40;99.90;;;;;;5039226;28;20504;-81
2022/11/01 03:20:27;;;;;;;0.00;0.00;;;15.40;99.90;;;;;;5054675;28;19920;-80
2022/11/01 03:22:59;;;;;;;0.82;0.40;;;15.50;99.90;;;;;;5072145;28;20143;-81
2022/11/01 03:25:39;;;;;;;0.15;0.15;;;15.50;99.90;;;;;;5055495;28;20067;-81
2022/11/01 03:28:21;;;;;;;0.03;0.03;;;15.50;99.90;;;;;;5054984;28;20098;-81
2022/11/01 03:31:14;;;;;;;1.38;0.65;;;15.60;99.90;;;;;;5055052;28;20056;-80
2022/11/01 03:33:45;;;;;;;0.10;0.10;;;15.60;99.90;;;;;;4979595;28;20062;-81
2022/11/01 03:36:14;;;;;;;0.10;0.10;;;15.70;99.90;;;;;;4995797;28;20058;-81
2022/11/01 03:38:43;;;;;;;0.10;0.10;;;15.60;99.90;;;;;;4995805;28;20049;-81
2022/11/01 03:41:14;;;;;;;0.00;0.00;;;15.60;99.90;;;;;;4979490;28;20054;-81
2022/11/01 03:43:40;;;;;;;0.00;0.00;;;15.70;99.90;;;;;;4995587;28;20056;-81
2022/11/01 03:46:07;;;;;;;25.00;0.85;;;15.70;99.90;;;;;;4978964;28;20045;-80
2022/11/01 03:48:34;;;;;;;0.35;0.05;;;15.70;99.90;;;;;;4979939;28;20057;-82
2022/11/01 03:51:00;;;;;;;0.10;0.10;;;15.80;99.90;;;;;;4995419;28;20060;-80
2022/11/01 03:53:25;;;;;;;0.00;0.00;;;15.70;99.90;;;;;;4996166;28;20042;-81
2022/11/01 03:55:51;;;;;;;2.90;0.63;;;15.70;99.90;;;;;;4995549;28;20136;-80
2022/11/01 03:58:17;;;;;;;0.00;0.00;;;15.80;99.90;;;;;;4995252;28;20100;-81
2022/11/01 04:00:44;;;;;;;0.10;0.10;;;15.70;99.90;;;;;;4979171;28;20509;-81
2022/11/01 04:03:11;;;;;;;0.00;0.00;;;15.80;99.90;;;;;;4995262;28;20045;-80
2022/11/01 04:05:39;;;;;;;0.00;0.00;;;15.70;99.90;;;;;;4979184;28;20061;-80
2022/11/01 04:08:05;;;;;;;0.10;0.10;;;15.80;99.90;;;;;;4995053;28;20050;-80
2022/11/01 04:10:31;;;;;;;0.10;0.10;;;15.70;99.90;;;;;;5024257;28;20056;-81
2022/11/01 04:12:59;;;;;;;0.00;0.00;;;15.80;99.90;;;;;;5092268;28;20369;-81
2022/11/01 04:21:09;;;;;;;2.63;0.38;;;15.80;99.90;;;;;;5092765;28;20088;-81
2022/11/01 04:23:34;;;;;;;0.00;0.00;;;15.80;99.90;;;;;;5075897;28;20105;-81
2022/11/01 04:26:01;;;;;;;0.08;0.00;;;15.80;99.90;;;;;;5092538;28;20039;-80
2022/11/01 04:28:27;;;;;;;0.10;0.10;;;15.90;99.90;;;;;;5075705;28;20110;-81
2022/11/01 04:30:53;;;;;;;0.05;0.05;;;15.90;99.90;;;;;;5092922;28;20040;-81
2022/11/01 04:33:18;;;;;;;0.35;0.05;;;15.90;99.90;;;;;;5096263;28;20075;-81
2022/11/01 04:35:45;;;;;;;1.65;0.52;;;15.90;99.90;;;;;;5096314;28;20080;-81
2022/11/01 04:38:11;;;;;;;0.75;0.17;;;15.90;99.90;;;;;;5096316;28;20533;-81
2022/11/01 04:40:37;;;;;;;1.25;0.00;;;15.90;99.90;;;;;;5079167;28;20044;-80
2022/11/01 04:43:03;;;;;;;0.17;0.10;;;15.90;99.90;;;;;;5079093;28;20086;-80
2022/11/01 04:45:29;;;;;;;0.00;0.00;;;15.90;99.90;;;;;;5096159;28;20086;-80
2022/11/01 04:48:02;;;;;;;0.35;0.20;;;15.80;99.90;;;;;;5095563;28;20048;-81
2022/11/01 04:50:28;;;;;;;0.17;0.17;;;15.80;99.90;;;;;;5096073;28;20032;-81
2022/11/01 04:52:54;;;;;;;0.00;0.00;;;15.90;99.90;;;;;;5079510;28;20047;-81
2022/11/01 04:55:19;;;;;;;0.00;0.00;;;15.80;99.90;;;;;;5095843;28;20574;-80
2022/11/01 04:57:45;;;;;;;0.38;0.35;;;15.80;99.90;;;;;;5095813;28;20044;-81
2022/11/01 05:00:12;;;;;;;1.27;0.57;;;15.80;99.90;;;;;;5095807;28;20048;-81
2022/11/01 05:02:39;;;;;;;0.10;0.10;;;15.80;99.90;;;;;;5096125;28;20044;-80
2022/11/01 05:05:07;;;;;;;0.10;0.10;;;15.80;99.90;;;;;;5095627;28;20210;-80
2022/11/01 05:07:33;;;;;;;0.00;0.00;;;15.80;99.90;;;;;;5078345;28;20056;-80
2022/11/01 05:09:58;;;;;;;0.63;0.20;;;15.80;99.90;;;;;;5095440;28;20036;-80
2022/11/01 05:12:24;;;;;;;0.10;0.10;;;15.80;99.90;;;;;;5078880;28;20052;-80
2022/11/01 05:14:50;;;;;;;1.33;0.20;;;15.80;99.90;;;;;;5078651;28;20516;-80
2022/11/01 05:17:15;;;;;;;0.00;0.00;;;15.90;99.90;;;;;;5095435;28;20040;-81
2022/11/01 05:19:41;;;;;;;0.10;0.10;;;15.90;99.90;;;;;;5095175;28;20044;-80
2022/11/01 05:22:06;;;;;;;0.10;0.10;;;15.90;99.90;;;;;;5078657;28;20059;-81
2022/11/01 05:24:32;;;;;;;0.52;0.00;;;15.90;99.90;;;;;;5095258;28;20069;-81
2022/11/01 05:26:59;;;;;;;0.32;0.20;;;15.90;99.90;;;;;;5095497;28;20046;-81
2022/11/01 05:29:25;;;;;;;0.10;0.10;;;15.90;99.90;;;;;;5078642;28;20056;-82
2022/11/01 05:31:51;;;;;;;0.00;0.00;;;15.80;99.90;;;;;;5094838;28;20044;-80
2022/11/01 05:34:17;;;;;;;0.73;0.73;;;15.90;99.90;;;;;;5095066;28;20479;-81
2022/11/01 05:36:43;;;;;;;0.17;0.17;;;15.90;99.90;;;;;;5078390;28;20052;-81
2022/11/01 05:39:09;;;;;;;2.05;0.45;;;15.90;99.90;;;;;;5095013;28;20040;-81
2022/11/01 05:41:34;;;;;;;1.40;0.20;;;15.90;99.90;;;;;;5077730;28;20060;-82
2022/11/01 05:44:00;;;;;;;0.05;0.00;;;15.80;99.90;;;;;;5078240;28;20475;-82
2022/11/01 05:46:26;;;;;;;0.00;0.00;;;15.80;99.90;;;;;;5094742;28;20086;-82
2022/11/01 05:48:51;;;;;;;0.93;0.63;;;15.70;99.90;;;;;;5094679;28;20056;-81
2022/11/01 05:51:17;;;;;;;0.10;0.10;;;15.70;99.90;;;;;;5094392;28;20036;-82
2022/11/01 05:53:42;;;;;;;0.10;0.00;;;15.70;99.90;;;;;;5094718;28;20040;-81
2022/11/01 05:56:09;;;;;;;0.43;0.20;;;15.60;99.90;;;;;;5094354;28;20422;-82
2022/11/01 05:58:34;;;;;;;0.00;0.00;;;15.60;99.90;;;;;;5094391;28;20066;-82
2022/11/01 06:01:04;;;;;;;1.08;0.30;;;15.50;99.90;;;;;;5077974;28;20051;-81
2022/11/01 06:03:30;;;;;;;0.00;0.00;;;15.50;99.90;;;;;;5077596;28;20066;-81
2022/11/01 06:05:57;;;;;;;0.00;0.00;;;15.40;99.90;;;;;;5077662;28;20044;-81
2022/11/01 06:08:23;;;;;;;0.00;0.00;;;15.40;99.90;;;;;;5094231;28;20165;-81
2022/11/01 06:10:48;;;;;;;0.00;0.00;;;15.40;99.90;;;;;;5094203;28;20440;-82
2022/11/01 06:13:14;;;;;;;0.08;0.00;;;15.40;99.90;;;;;;5094825;28;20113;-82
2022/11/01 06:15:40;;;;;;;1.27;0.52;;;15.30;99.90;;;;;;5077830;28;20056;-82
2022/11/01 06:18:06;;;;;;;0.00;0.00;;;15.20;99.90;;;;;;5089855;28;20503;-82
2022/11/01 06:20:33;;;;;;;0.00;0.00;;;15.20;99.90;;;;;;5066339;28;20044;-82
2022/11/01 06:22:59;;;;;;;0.00;0.00;;;15.20;99.90;;;;;;5082462;28;20040;-82
2022/11/01 06:25:26;;;;;;;0.10;0.00;;;15.20;99.90;;;;;;5073989;28;20365;-81
2022/11/01 06:27:55;;;;;;;0.15;0.05;;;15.10;99.90;;;;;;5094237;28;20040;-82
2022/11/01 06:30:20;;;;;;;0.00;0.00;;;15.00;99.90;;;;;;5076616;28;20055;-81
2022/11/01 06:32:46;;;;;;;0.00;0.00;;;14.90;99.90;;;;;;5077189;28;20488;-82
2022/11/01 06:35:12;;;;;;;0.00;0.00;;;14.90;99.90;;;;;;5093946;28;20051;-81
2022/11/01 06:37:38;;;;;;;0.10;0.10;;;14.90;99.90;;;;;;5076973;28;20040;-82
2022/11/01 06:40:06;;;;;;;0.00;0.00;;;14.80;99.90;;;;;;5093794;28;20052;-82
2022/11/01 06:42:31;;;;;;;0.00;0.00;;;14.70;99.90;;;;;;5093843;28;20070;-81
2022/11/01 06:44:57;;;;;;;0.00;0.00;;;14.60;99.90;;;;;;5093555;28;20048;-82
2022/11/01 06:47:23;;;;;;;0.00;0.00;;;14.70;99.90;;;;;;5093401;28;20119;-82
2022/11/01 06:49:49;;;;;;;0.00;0.00;;;14.50;99.90;;;;;;5076502;28;20048;-82
2022/11/01 06:52:14;;;;;;;0.43;0.30;;;14.50;99.90;;;;;;5076482;28;20048;-81
2022/11/01 06:54:40;;;;;;;0.30;0.25;;;14.50;99.90;;;;;;5076004;28;20486;-83
2022/11/01 06:57:05;;;;;;;0.00;0.00;;;14.40;99.90;;;;;;5076705;28;20040;-83
2022/11/01 06:59:31;;;;;;;0.05;0.05;;;14.40;99.90;;;;;;5093586;28;20043;-83
2022/11/01 07:01:57;;;;;;;0.00;0.00;;;14.30;99.90;;;;;;5093488;28;20479;-83
2022/11/01 07:04:22;;;;;;;0.00;0.00;;;14.30;99.90;;;;;;5076541;28;20082;-83
2022/11/01 07:06:48;;;;;;;0.00;0.00;;;14.20;99.90;;;;;;5093291;28;20055;-83
2022/11/01 07:09:14;;;;;;;0.00;0.00;;;14.20;99.90;;;;;;5093309;28;20048;-86
2022/11/01 07:11:39;;;;;;;0.00;0.00;;;14.20;99.90;;;;;;5076028;28;20043;-82
2022/11/01 07:14:05;;;;;;;0.00;0.00;;;14.20;99.90;;;;;;5093349;28;20036;-83
2022/11/01 07:16:31;;;;;;;0.00;0.00;;;14.20;99.90;;;;;;5092941;28;20059;-83
2022/11/01 07:18:57;;;;;;;0.17;0.17;;;14.20;99.90;;;;;;5093157;28;20040;-84
2022/11/01 07:21:23;;;;;;;0.00;0.00;;;14.20;99.90;;;;;;5092391;28;20058;-84
2022/11/01 07:23:49;;;;;;;0.22;0.22;;;14.10;99.90;;;;;;5093789;28;20077;-82
2022/11/01 07:26:15;;;;;;;0.00;0.00;;;14.10;99.90;;;;;;5093600;28;20122;-82
2022/11/01 07:28:40;;;;;;;0.00;0.00;;;14.10;99.90;;;;;;5092932;28;20040;-83
2022/11/01 07:31:06;;;;;;;0.20;0.00;;;14.10;99.90;;;;;;5093019;28;20499;-82
2022/11/01 07:33:32;;;;;;;2.97;1.23;;;14.10;99.90;;;;;;5076273;28;20044;-82
2022/11/01 07:35:59;;;;;;;0.00;0.00;;;14.10;99.90;;;;;;5092853;28;20547;-82
2022/11/01 07:38:24;;;;;;;0.00;0.00;;;14.10;99.90;;;;;;5093132;28;20048;-82
2022/11/01 07:40:52;;;;;;;0.00;0.00;;;14.10;99.90;;;;;;5075967;28;20105;-82
2022/11/01 07:43:18;;;;;;;0.25;0.20;;;14.20;99.90;;;;;;5092798;28;20548;-82
2022/11/01 07:45:44;;;;;;;0.00;0.00;;;14.20;99.90;;;;;;5075879;28;20130;-82
2022/11/01 07:48:12;;;;;;;0.00;0.00;;;14.30;99.90;;;;;;5075509;28;20127;-83
2022/11/01 07:50:39;;;;;;;0.00;0.00;;;14.30;99.90;;;;;;5092545;28;20044;-82
2022/11/01 07:53:16;;;;;;;1.25;0.45;;;14.40;99.90;;;;;;5092684;28;20625;-83
2022/11/01 07:55:42;;;;;;;1.88;0.30;;;14.50;99.90;;;;;;5076106;28;20048;-86
2022/11/01 07:58:09;;;;;;;0.00;0.00;;;14.40;99.90;;;;;;5075936;28;20517;-83
2022/11/01 08:00:35;;;;;;;0.00;0.00;;;14.60;99.90;;;;;;5075826;28;20040;-83
2022/11/01 08:03:01;;;;;;;0.00;0.00;;;14.60;99.90;;;;;;5092227;28;20059;-83
2022/11/01 08:05:28;;;;;;;0.00;0.00;;;14.60;99.90;;;;;;5077487;28;20054;-83
2022/11/01 08:07:55;;;;;;;5.57;0.65;;;14.70;99.90;;;;;;5097246;28;20514;-83
2022/11/01 08:10:20;;;;;;;0.00;0.00;;;14.90;99.90;;;;;;5096504;28;20131;-83
2022/11/01 08:12:46;;;;;;;0.52;0.43;;;15.00;99.90;;;;;;5079400;28;20123;-83
2022/11/01 08:15:12;;;;;;;0.00;0.00;;;15.30;99.90;;;;;;5079888;28;20147;-83
2022/11/01 08:17:37;;;;;;;0.00;0.00;;;15.50;99.90;;;;;;5096439;28;20058;-83
2022/11/01 08:20:04;;;;;;;0.00;0.00;;;15.80;99.90;;;;;;5079622;28;20596;-83
2022/11/01 08:22:29;;;;;;;0.00;0.00;;;16.30;99.90;;;;;;5096418;28;20044;-83
2022/11/01 08:24:55;;;;;;;0.00;0.00;;;16.80;99.90;;;;;;5096441;28;20090;-83
2022/11/01 08:27:21;;;;;;;0.10;0.10;;;17.40;99.90;;;;;;5079201;28;20102;-83
2022/11/01 08:29:46;;;;;;;3.75;0.55;;;17.90;99.90;;;;;;5096175;28;20048;-84
2022/11/01 08:32:12;;;;;;;2.10;0.45;;;18.40;99.90;;;;;;5096246;28;20047;-83
2022/11/01 08:34:38;;;;;;;0.00;0.00;;;18.60;99.50;;;;;;5096475;28;20047;-83
2022/11/01 08:37:03;;;;;;;0.08;0.05;;;19.10;99.20;;;;;;5096718;28;20063;-83
2022/11/01 08:39:29;;;;;;;0.70;0.38;;;19.50;96.80;;;;;;5079450;28;20077;-82
2022/11/01 08:41:56;;;;;;;0.30;0.15;;;19.80;95.60;;;;;;5096193;28;20039;-83
2022/11/01 08:44:22;;;;;;;0.00;0.00;;;20.20;94.30;;;;;;5096032;28;20483;-82
2022/11/01 08:46:51;;;;;;;1.13;0.00;;;20.50;93.80;;;;;;5078771;28;20067;-83
2022/11/01 08:49:17;;;;;;;0.77;0.65;;;20.40;92.70;;;;;;5089338;28;20105;-84
2022/11/01 08:51:43;;;;;;;0.05;0.05;;;20.20;92.60;;;;;;5074797;28;20061;-84
2022/11/01 08:54:08;;;;;;;0.30;0.20;;;20.30;91.00;;;;;;5081967;28;20123;-83
2022/11/01 08:56:34;;;;;;;0.45;0.13;;;20.50;92.00;;;;;;5095566;28;20050;-83
2022/11/01 08:59:00;;;;;;;2.55;0.80;;;20.60;91.20;;;;;;5095420;28;20101;-83
2022/11/01 09:01:26;;;;;;;0.00;0.00;;;20.50;89.00;;;;;;5078385;28;20093;-83
2022/11/01 09:03:56;;;;;;;0.00;0.00;;;20.70;89.70;;;;;;5096237;28;20086;-84
2022/11/01 09:06:22;;;;;;;1.27;0.55;;;20.80;90.60;;;;;;5071981;28;20131;-83
2022/11/01 09:08:49;;;;;;;0.00;0.00;;;20.90;89.80;;;;;;5058747;28;20088;-83
2022/11/01 09:11:15;;;;;;;0.22;0.10;;;21.10;88.70;;;;;;5058681;28;20489;-83
2022/11/01 09:13:44;;;;;;;1.88;0.90;;;21.20;86.60;;;;;;5058462;28;20071;-82
2022/11/01 09:16:10;;;;;;;0.00;0.00;;;21.20;86.70;;;;;;5074797;28;20087;-82
2022/11/01 09:18:35;;;;;;;0.00;0.00;;;20.80;85.00;;;;;;5074560;28;20087;-82
2022/11/01 09:21:01;;;;;;;0.00;0.00;;;20.80;88.60;;;;;;5075043;28;20499;-82
2022/11/01 09:23:27;;;;;;;0.28;0.28;;;20.90;87.70;;;;;;5074890;28;20049;-81
2022/11/01 09:25:52;;;;;;;0.00;0.00;;;21.10;86.20;;;;;;5058269;28;20056;-82
2022/11/01 09:28:18;;;;;;;0.13;0.10;;;21.20;85.70;;;;;;5074913;28;20045;-83
2022/11/01 09:30:45;;;;;;;0.00;0.00;;;20.90;83.80;;;;;;5074485;28;20051;-83
2022/11/01 09:33:10;;;;;;;0.00;0.00;;;20.90;85.30;;;;;;5074839;28;20083;-83
2022/11/01 09:35:36;;;;;;;0.00;0.00;;;20.80;86.10;;;;;;5058089;28;20098;-82
2022/11/01 09:38:03;;;;;;;0.47;0.30;;;21.10;87.00;;;;;;5058740;28;20049;-82
2022/11/01 09:40:42;;;;;;;0.00;0.00;;;21.00;86.10;;;;;;5058097;28;20044;-81
2022/11/01 09:43:13;;;;;;;0.00;0.00;;;21.30;86.30;;;;;;5074613;28;20059;-82
2022/11/01 09:45:39;;;;;;;37.88;1.38;;;21.40;86.50;;;;;;5075096;28;20137;-82
2022/11/01 09:48:06;;;;;;;0.00;0.00;;;21.40;86.50;;;;;;5074288;28;20052;-83
2022/11/01 09:50:36;;;;;;;0.00;0.00;;;21.60;85.70;;;;;;5057711;28;20404;-83
2022/11/01 09:53:07;;;;;;;19.17;0.65;;;21.70;85.20;;;;;;5074563;28;20071;-82
2022/11/01 09:55:39;;;;;;;0.00;0.00;;;21.80;85.70;;;;;;5074429;28;20036;-82
2022/11/01 09:58:34;;;;;;;0.00;0.00;;;21.50;85.30;;;;;;5074752;28;20568;-82
2022/11/01 10:01:18;;;;;;;0.65;0.52;;;21.50;85.90;;;;;;5057539;28;20094;-82
2022/11/01 10:03:43;;;;;;;1.83;0.40;;;21.60;86.00;;;;;;5074293;28;20044;-83
2022/11/01 10:06:25;;;;;;;0.30;0.30;;;21.30;85.10;;;;;;5074394;28;20408;-82
2022/11/01 10:08:57;;;;;;;0.45;0.10;;;21.30;86.00;;;;;;5074206;28;20051;-82
2022/11/01 10:12:02;;;;;;;0.17;0.15;;;21.20;85.80;;;;;;5073985;28;20044;-81
2022/11/01 10:14:45;;;;;;;0.38;0.13;;;21.10;87.40;;;;;;5057871;28;20071;-81
2022/11/01 10:17:19;;;;;;;0.35;0.20;;;21.00;87.30;;;;;;5057830;28;20048;-83
2022/11/01 10:19:48;;;;;;;0.00;0.00;;;20.20;88.50;;;;;;5057446;28;20396;-82
2022/11/01 10:22:35;;;;;;;3.10;0.90;;;19.50;91.40;;;;;;5057316;28;20044;-81
2022/11/01 10:25:07;;;;;;;0.22;0.08;;;19.50;93.40;;;;;;5074037;28;20067;-82
2022/11/01 10:27:51;;;;;;;0.25;0.25;;;19.80;93.00;;;;;;5073762;28;20098;-82
2022/11/01 10:30:18;;;;;;;0.10;0.07;;;19.90;93.20;;;;;;5056470;28;20048;-83
2022/11/01 10:33:07;;;;;;;0.13;0.13;;;19.60;93.10;;;;;;5057227;28;20056;-83
2022/11/01 10:35:39;;;;;;;1.13;0.22;;;19.30;93.80;;;;;;5056758;28;20065;-82
2022/11/01 10:38:27;;;;;;;0.00;0.00;;;18.90;94.50;;;;;;5087329;28;20048;-82
2022/11/01 10:41:00;;;;;;;0.10;0.10;;;18.50;96.40;;;;;;5035767;28;20056;-83
2022/11/01 10:43:26;;;;;;;0.50;0.50;;;18.20;97.70;;;;;;5019376;28;20052;-84
2022/11/01 10:45:54;;;;;;;0.00;0.00;;;18.20;98.80;;;;;;5035747;28;20056;-83
2022/11/01 10:48:51;;;;;;;0.15;0.13;;;18.50;98.40;;;;;;5035599;28;20441;-82
2022/11/01 10:51:20;;;;;;;0.00;0.00;;;18.90;97.40;;;;;;5015639;28;20089;-82
2022/11/01 10:53:50;;;;;;;0.22;0.20;;;18.90;97.70;;;;;;4999557;28;20135;-82
2022/11/01 10:56:25;;;;;;;0.10;0.03;;;19.10;97.80;;;;;;5012029;28;20042;-83
2022/11/01 10:58:54;;;;;;;0.10;0.10;;;18.60;97.20;;;;;;4996203;28;20057;-82
2022/11/01 11:01:23;;;;;;;0.00;0.00;;;18.70;98.60;;;;;;5012276;28;20149;-83
2022/11/01 11:03:50;;;;;;;0.00;0.00;;;19.00;98.30;;;;;;4996137;28;20053;-83
2022/11/01 11:06:17;;;;;;;0.00;0.00;;;19.00;98.10;;;;;;4996014;28;20077;-83
2022/11/01 11:08:48;;;;;;;0.00;0.00;;;19.00;97.90;;;;;;4995933;28;20062;-83
2022/11/01 11:11:17;;;;;;;0.90;0.45;;;18.80;98.50;;;;;;4995835;28;20106;-83
2022/11/01 11:13:51;;;;;;;0.32;0.32;;;18.50;99.50;;;;;;4979413;28;20061;-83
2022/11/01 11:16:38;;;;;;;1.17;0.57;;;18.40;99.90;;;;;;4996054;28;20050;-83
2022/11/01 11:19:20;;;;;;;0.55;0.30;;;18.00;99.90;;;;;;5014396;28;20543;-83
2022/11/01 11:21:48;;;;;;;0.10;0.10;;;17.70;99.90;;;;;;5015404;28;20057;-83
2022/11/01 11:24:20;;;;;;;0.10;0.05;;;17.50;99.90;;;;;;5015352;28;20514;-83
2022/11/01 11:26:48;;;;;;;0.00;0.00;;;17.40;99.90;;;;;;5004868;28;20060;-82
2022/11/01 11:29:47;;;;;;;0.00;0.00;;;17.30;99.90;;;;;;5072766;28;20055;-82
2022/11/01 11:32:21;;;;;;;0.00;0.00;;;17.50;99.90;;;;;;5072790;28;20041;-82
2022/11/01 11:35:07;;;;;;;0.57;0.10;;;17.90;99.90;;;;;;5056104;28;20051;-82
2022/11/01 11:37:35;;;;;;;0.35;0.35;;;18.20;99.90;;;;;;5072679;28;20036;-82
2022/11/01 11:40:19;;;;;;;0.08;0.00;;;18.30;99.90;;;;;;5055771;28;20052;-82
2022/11/01 11:42:47;;;;;;;0.00;0.00;;;18.10;99.90;;;;;;5072785;28;20081;-82
2022/11/01 11:45:30;;;;;;;0.00;0.00;;;18.30;99.90;;;;;;5072471;28;20047;-82
2022/11/01 11:48:12;;;;;;;0.10;0.10;;;18.70;99.90;;;;;;5055033;28;20056;-82
2022/11/01 11:50:39;;;;;;;1.27;0.10;;;18.70;99.80;;;;;;5056317;28;20049;-83
2022/11/01 11:53:14;;;;;;;0.00;0.00;;;18.80;99.10;;;;;;5056012;28;20139;-83
2022/11/01 11:55:46;;;;;;;0.00;0.00;;;18.80;98.60;;;;;;5072427;28;20040;-82
2022/11/01 11:58:24;;;;;;;0.10;0.10;;;18.80;98.00;;;;;;5072482;28;20044;-83
2022/11/01 12:00:53;;;;;;;0.10;0.00;;;19.00;98.50;;;;;;5073302;28;20048;-83
2022/11/01 12:03:21;;;;;;;0.00;0.00;;;19.20;97.80;;;;;;5072536;28;20131;-83
2022/11/01 12:05:55;;;;;;;0.20;0.10;;;19.50;97.90;;;;;;5055737;28;20045;-82
2022/11/01 12:08:45;;;;;;;0.98;0.30;;;19.50;96.80;;;;;;5055735;28;20419;-82
2022/11/01 12:11:12;;;;;;;0.10;0.10;;;19.60;96.40;;;;;;5072204;28;20464;-83
2022/11/01 12:13:59;;;;;;;0.00;0.00;;;19.70;96.40;;;;;;5072107;28;20056;-82
2022/11/01 12:16:25;;;;;;;0.17;0.17;;;19.80;96.30;;;;;;5055738;28;20049;-82
2022/11/01 12:18:59;;;;;;;0.00;0.00;;;19.80;96.30;;;;;;5055681;28;20048;-83
2022/11/01 12:21:40;;;;;;;0.30;0.15;;;19.60;95.60;;;;;;5055347;28;20063;-82
2022/11/01 12:24:32;;;;;;;0.00;0.00;;;19.40;96.50;;;;;;5072865;28;20059;-82
2022/11/01 12:27:02;;;;;;;0.10;0.10;;;19.40;96.90;;;;;;5055521;28;20186;-83
2022/11/01 12:29:35;;;;;;;0.00;0.00;;;19.30;97.70;;;;;;5055766;28;20392;-84
2022/11/01 12:32:10;;;;;;;0.93;0.20;;;19.10;96.70;;;;;;5055498;28;20127;-82
2022/11/01 12:34:39;;;;;;;0.03;0.03;;;18.90;98.40;;;;;;5055690;28;20040;-82
2022/11/01 12:37:18;;;;;;;0.00;0.00;;;18.80;98.10;;;;;;5055729;28;20408;-83
2022/11/01 12:39:43;;;;;;;0.00;0.00;;;18.70;98.70;;;;;;5072269;28;20045;-84
2022/11/01 12:42:17;;;;;;;0.00;0.00;;;18.60;98.90;;;;;;5055388;28;20051;-83
2022/11/01 12:44:50;;;;;;;0.00;0.00;;;18.30;98.50;;;;;;5072131;28;20477;-83
2022/11/01 12:47:22;;;;;;;1.30;0.45;;;18.20;99.20;;;;;;5071605;28;20045;-82
2022/11/01 12:49:57;;;;;;;0.20;0.20;;;18.20;99.70;;;;;;5072384;28;20052;-83
2022/11/01 12:52:42;;;;;;;0.00;0.00;;;18.00;99.70;;;;;;5056541;28;20044;-82
2022/11/01 12:55:26;;;;;;;1.77;0.38;;;18.00;99.90;;;;;;5059680;28;20044;-82
2022/11/01 12:57:54;;;;;;;0.00;0.00;;;17.90;99.90;;;;;;5058977;28;20052;-82
2022/11/01 13:00:20;;;;;;;2.10;0.30;;;17.70;99.90;;;;;;5058774;28;20052;-83
2022/11/01 13:03:25;;;;;;;0.38;0.38;;;17.70;99.90;;;;;;5075537;28;20045;-83
2022/11/01 13:06:16;;;;;;;0.00;0.00;;;17.70;99.90;;;;;;5058808;28;20045;-83
2022/11/01 13:08:55;;;;;;;0.17;0.17;;;17.60;99.90;;;;;;5059032;28;20187;-82
2022/11/01 13:11:45;;;;;;;0.00;0.00;;;17.60;99.90;;;;;;5084447;28;20048;-83